| Date | Time | Temp. (oF) | Dew Point (oF) | Rel. Hum. (%) | Press. (in.) | Wind Dir. (deg.) | Wind Speed (mph) | Hourly Rainfall (i n.) |
|
|---|---|---|---|---|---|---|---|---|---|
| 1 | 09/14 | 24:00 | 68 | 61 | 80 | 30.35 | 110 | 0 | 0.00 |
| 2 | 09/13 | 23:00 | 69 | 61 | 77 | 30.35 | 110 | 0 | 0.00 |
| 3 | 09/13 | 22:00 | 69 | 60 | 74 | 30.35 | 130 | 4 | 0.00 |
| 4 | 09/13 | 21:00 | 70 | 60 | 73 | 30.34 | 130 | 2 | 0.00 |
| 5 | 09/13 | 20:00 | 71 | 60 | 70 | 30.33 | 130 | 0 | 0.00 |
| 6 | 09/13 | 19:00 | 74 | 59 | 61 | 30.36 | 130 | 0 | 0.00 |
| 7 | 09/13 | 18:00 | 75 | 57 | 55 | 30.38 | 150 | 6 | 0.00 |
| 8 | 09/13 | 17:00 | 76 | 56 | 52 | 30.37 | 130 | 6 | 0.00 |
| 9 | 09/13 | 16:00 | 77 | 56 | 49 | 30.37 | 150 | 10 | 0.00 |
| 10 | 09/13 | 15:00 | 77 | 55 | 48 | 30.36 | 330 | 6 | 0.00 |
| 11 | 09/13 | 14:00 | 78 | 57 | 49 | 30.37 | 190 | 6 | 0.00 |
| 12 | 09/13 | 13:00 | 77 | 57 | 52 | 30.36 | 120 | 10 | 0.00 |
| 13 | 09/13 | 12:00 | 76 | 57 | 53 | 30.37 | 320 | 7 | 0.00 |
| 14 | 09/13 | 11:00 | 72 | 58 | 63 | 30.37 | 130 | 6 | 0.00 |
| 15 | 09/13 | 10:00 | 66 | 59 | 81 | 30.37 | 140 | 2 | 0.00 |
| 16 | 09/13 | 09:00 | 63 | 58 | 86 | 30.37 | 150 | 0 | 0.01 |
| 17 | 09/13 | 08:00 | 60 | 56 | 88 | 30.37 | 150 | 1 | 0.00 |
| 18 | 09/13 | 07:00 | 59 | 55 | 87 | 30.36 | 150 | 0 | 0.00 |
| 19 | 09/13 | 06:00 | 59 | 55 | 87 | 30.36 | 150 | 1 | 0.00 |
| 20 | 09/13 | 05:00 | 60 | 56 | 87 | 30.37 | 150 | 0 | 0.00 |
| 21 | 09/13 | 04:00 | 60 | 55 | 85 | 30.36 | 150 | 0 | 0.00 |
| 22 | 09/13 | 03:00 | 61 | 56 | 84 | 30.37 | 150 | 0 | 0.00 |
| 23 | 09/13 | 02:00 | 62 | 56 | 83 | 30.38 | 150 | 0 | 0.00 |
| 24 | 09/13 | 01:00 | 63 | 57 | 81 | 30.40 | 150 | 0 | 0.00 |